WetterOnline ( https://www.wetteronline.at )

Wetter aktuell Aachen

Aktuelles Wetter: Aachen-Orsbach (231m)

6-stündlich | Neueste Meldungen
Ortszeit Temperatur Wetter
Mo, 16.09. 2:00 14.3° C bedeckt
So, 15.09. 20:00 17.8° C wolkenlos
So, 15.09. 14:00 21.5° C leicht bewölkt
So, 15.09. 8:00 12.5° C wolkenlos
So, 15.09. 2:00 13.7° C wolkenlos
Sa, 14.09. 20:00 18.3° C wolkig
Sa, 14.09. 14:00 19.8° C wolkenlos
Sa, 14.09. 8:00 9.2° C wolkenlos
Ortszeit Temperatur Wetter
Mo, 16.09. 2:30 14.6° C bedeckt
Mo, 16.09. 2:20 14.6° C bedeckt
Mo, 16.09. 2:10 14.7° C bedeckt
Mo, 16.09. 2:00 14.3° C bedeckt
Mo, 16.09. 1:40 13.8° C bedeckt
Mo, 16.09. 1:30 14.5° C bewölkt
Mo, 16.09. 1:00 13.9° C bedeckt
Mo, 16.09. 0:30 14.5° C bewölkt
Mo, 16.09. 0:00 15.3° C leicht bewölkt
So, 15.09. 23:30 16.1° C leicht bewölkt
Ortszeit Relative Feuchte Sichtweite
Mo, 16.09. 2:00 82% 30 km
So, 15.09. 20:00 54% 60 km
So, 15.09. 14:00 41% 45 km
So, 15.09. 8:00 76% 45 km
So, 15.09. 2:00 63% >70 km
Sa, 14.09. 20:00 48% 60 km
Sa, 14.09. 14:00 52% 50 km
Sa, 14.09. 8:00 93% 27 km
Ortszeit Relative Feuchte Sichtweite
Mo, 16.09. 2:30 84% 28 km
Mo, 16.09. 2:20 84% -
Mo, 16.09. 2:10 83% -
Mo, 16.09. 2:00 82% 30 km
Mo, 16.09. 1:40 82% -
Mo, 16.09. 1:30 82% 40 km
Mo, 16.09. 1:00 78% 40 km
Mo, 16.09. 0:30 76% 45 km
Mo, 16.09. 0:00 72% 50 km
So, 15.09. 23:30 64% 65 km
Ortszeit Niederschlagsmenge Niederschlagsart
Mo, 16.09. 2:00 0.0 l/m2 in 6 Std. -
So, 15.09. 20:00 0.0 l/m2 in 12 Std. -
So, 15.09. 14:00 0.0 l/m2 in 6 Std. -
So, 15.09. 8:00 0.0 l/m2 in 12 Std. -
So, 15.09. 2:00 0.0 l/m2 in 6 Std. -
Sa, 14.09. 20:00 0.0 l/m2 in 12 Std. -
Sa, 14.09. 14:00 0.0 l/m2 in 6 Std. -
Sa, 14.09. 8:00 0.0 l/m2 in 12 Std. -
Ortszeit Niederschlagsmenge Niederschlagsart
Mo, 16.09. 2:30 0.0 l/m2 in 1 Std. -
Mo, 16.09. 2:20 keine Meldung -
Mo, 16.09. 2:10 keine Meldung -
Mo, 16.09. 2:00 0.0 l/m2 in 1 Std. -
Mo, 16.09. 1:40 keine Meldung -
Mo, 16.09. 1:30 0.0 l/m2 in 1 Std. -
Mo, 16.09. 1:00 0.0 l/m2 in 1 Std. -
Mo, 16.09. 0:30 0.0 l/m2 in 1 Std. -
Mo, 16.09. 0:00 0.0 l/m2 in 1 Std. -
So, 15.09. 23:30 0.0 l/m2 in 1 Std. -
Ortszeit Stärke Spitze Richtung
km/h Bft. km/h Grad Sektor
Mo, 16.09. 2:00 14 3 14 160° S
So, 15.09. 20:00 7 2 29 230° SW
So, 15.09. 14:00 14 3 25 290° W
So, 15.09. 8:00 9 2 26 230° SW
So, 15.09. 2:00 9 2 17 170° S
Sa, 14.09. 20:00 9 2 24 30° NO
Sa, 14.09. 14:00 11 2 25 90° O
Sa, 14.09. 8:00 11 2 14 90° O
Ortszeit Stärke Spitze Richtung
km/h Bft. km/h Grad Sektor
Mo, 16.09. 2:30 13 3 17 150° SO
Mo, 16.09. 2:20 13 3 - 150° SO
Mo, 16.09. 2:10 14 3 - 160° S
Mo, 16.09. 2:00 14 3 14 160° S
Mo, 16.09. 1:40 9 2 - 160° S
Mo, 16.09. 1:30 6 1 7 140° SO
Mo, 16.09. 1:00 4 1 11 140° SO
Mo, 16.09. 0:30 4 1 11 350° N
Mo, 16.09. 0:00 7 2 14 340° N
So, 15.09. 23:30 7 2 11 330° NW
Ortszeit Untergrenze Bedeckung Gattung
total tief tief mittel hoch
Mo, 16.09. 2:00 5400 m 8/8 8/8 - - -
So, 15.09. 20:00 - 0/8 0/8 - - -
So, 15.09. 14:00 10500 m 7/8 0/8 - - -
So, 15.09. 8:00 - 0/8 0/8 - - -
So, 15.09. 2:00 - 0/8 0/8 - - -
Sa, 14.09. 20:00 9000 m 7/8 0/8 - - -
Sa, 14.09. 14:00 - 0/8 0/8 - - -
Sa, 14.09. 8:00 - 0/8 0/8 - - -
Ortszeit Bedeckungsgrad in Achtel und Wolkenuntergrenze
Mo, 16.09. 2:30 7(5100m) 8(5700m)
Mo, 16.09. 2:20 7(5100m) 8(5700m)
Mo, 16.09. 2:10 8(5100m)
Mo, 16.09. 2:00 5(5400m) 8(5700m)
Mo, 16.09. 1:40 8(5700m)
Mo, 16.09. 1:30 4(6000m) 8(7500m) 8(10500m)
Mo, 16.09. 1:00 4(6300m) 8(6900m) 8(7800m)
Mo, 16.09. 0:30 5(6300m) 8(7500m) 8(8100m)
Mo, 16.09. 0:00 6(7800m) 6(8400m)
So, 15.09. 23:30 4(7800m)
Ortszeit Luftdruck NN (hPa) Tendenz (hPa in 3 Std.)
Mo, 16.09. 2:00 1022 - 1,0
So, 15.09. 20:00 1022 - 0,2
So, 15.09. 14:00 1024 - 0,6
So, 15.09. 8:00 1025 - 0,4
So, 15.09. 2:00 1027 - 2,0
Sa, 14.09. 20:00 1029 - 0,6
Sa, 14.09. 14:00 1031 - 1,7
Sa, 14.09. 8:00 1034 - 0,4
Ortszeit Luftdruck NN (hPa) Tendenz (hPa in 3 Std.)
Mo, 16.09. 2:30 1022 - 1,2
Mo, 16.09. 2:20 1022 keine Meldung
Mo, 16.09. 2:10 1022 keine Meldung
Mo, 16.09. 2:00 1022 - 1,0
Mo, 16.09. 1:40 1022 keine Meldung
Mo, 16.09. 1:30 1023 - 0,4
Mo, 16.09. 1:00 1023 - 0,2
Mo, 16.09. 0:30 1023 + 0,1
Mo, 16.09. 0:00 1023 + 0,3
So, 15.09. 23:30 1023 + 0,5
Ortszeit Schneehöhe (cm)
Mo, 16.09. 2:00 -
So, 15.09. 20:00 -
So, 15.09. 14:00 -
So, 15.09. 8:00 -
So, 15.09. 2:00 -
Sa, 14.09. 20:00 -
Sa, 14.09. 14:00 -
Sa, 14.09. 8:00 -
Ortszeit Schneehöhe (cm)
Mo, 16.09. 2:30 -
Mo, 16.09. 2:20 -
Mo, 16.09. 2:10 -
Mo, 16.09. 2:00 -
Mo, 16.09. 1:40 -
Mo, 16.09. 1:30 -
Mo, 16.09. 1:00 -
Mo, 16.09. 0:30 -
Mo, 16.09. 0:00 -
So, 15.09. 23:30 -
Link zu dieser Seite / Seite empfehlen

Das Wetter in ...